Time;durP1;ratioP1;P1;durP2;ratioP2;P2;SDS_P1;SDS_P2;PMS_P1;PMS_P2;Temp;Humidity;BMP_temperature;BMP_pressure;BME280_temperature;BME280_humidity;BME280_pressure;Samples;Min_cycle;Max_cycle;Signal;HPM_P1;HPM_P2
2021/01/14 00:02:55;;;;;;;1.30;1.20;;;;;;;21.20;38.10;101018.81;6255900;22;20181;-65
2021/01/14 00:05:21;;;;;;;1.00;1.00;;;;;;;21.16;37.98;101009.31;6307092;22;20158;-67
2021/01/14 00:07:49;;;;;;;1.13;1.03;;;;;;;21.15;37.95;101013.91;6308022;22;20158;-66
2021/01/14 00:10:15;;;;;;;1.00;0.90;;;;;;;21.18;38.26;101004.53;6308033;22;20190;-66
2021/01/14 00:12:41;;;;;;;1.00;1.00;;;;;;;21.19;37.97;101011.66;6307732;22;20170;-66
2021/01/14 00:15:08;;;;;;;1.10;1.10;;;;;;;21.20;37.95;101012.53;6281364;22;20173;-63
2021/01/14 00:17:34;;;;;;;0.93;0.93;;;;;;;21.21;38.18;101025.09;6255526;22;20166;-65
2021/01/14 00:20:00;;;;;;;1.17;1.10;;;;;;;21.18;38.07;101033.63;6307820;22;20253;-66
2021/01/14 00:22:27;;;;;;;1.20;1.00;;;;;;;21.18;38.02;101039.06;6307956;22;20223;-66
2021/01/14 00:24:53;;;;;;;0.80;0.80;;;;;;;21.20;38.27;101037.88;6307915;22;20598;-67
2021/01/14 00:27:19;;;;;;;0.97;0.97;;;;;;;21.20;38.31;101040.59;6307907;22;20212;-66
2021/01/14 00:29:45;;;;;;;1.23;1.10;;;;;;;21.23;38.52;101044.81;6307345;22;20587;-63
2021/01/14 00:32:11;;;;;;;0.80;0.80;;;;;;;21.24;38.54;101050.13;6281118;22;20169;-62
2021/01/14 00:34:38;;;;;;;1.10;1.00;;;;;;;21.27;38.41;101047.03;6308307;22;20251;-62
2021/01/14 00:39:53;;;;;;;0.80;0.80;;;;;;;21.33;38.55;101031.91;6263688;22;20486;-62
2021/01/14 00:42:20;;;;;;;0.80;0.80;;;;;;;21.35;38.51;101038.00;6255903;22;20162;-63
2021/01/14 00:44:46;;;;;;;0.90;0.90;;;;;;;21.38;38.49;101037.66;6230190;22;20166;-63
2021/01/14 00:47:12;;;;;;;1.07;1.07;;;;;;;21.41;38.50;101031.84;6307924;22;20162;-63
2021/01/14 00:49:38;;;;;;;1.20;1.10;;;;;;;21.43;38.25;101025.19;6280660;22;20179;-63
2021/01/14 00:52:04;;;;;;;1.17;1.07;;;;;;;21.44;38.38;101031.47;6255715;22;20165;-63
2021/01/14 00:54:30;;;;;;;1.10;1.00;;;;;;;;;;6255560;22;20159;-63
2021/01/14 00:56:56;;;;;;;0.93;0.90;;;;;;;21.47;38.04;101044.72;6280790;22;20594;-63
2021/01/14 00:59:22;;;;;;;0.93;0.93;;;;;;;21.47;38.20;101039.28;6307059;22;20232;-63
2021/01/14 01:01:48;;;;;;;0.80;0.80;;;;;;;21.48;38.15;101045.56;6255547;22;20163;-63
2021/01/14 01:04:14;;;;;;;0.80;0.80;;;;;;;21.46;38.14;101056.66;6307827;22;20495;-63
2021/01/14 01:06:41;;;;;;;0.87;0.83;;;;;;;21.46;38.00;101053.94;6255177;22;20181;-66
2021/01/14 01:09:09;;;;;;;1.00;0.90;;;;;;;21.44;37.79;101050.53;6280803;22;20197;-65
2021/01/14 01:11:35;;;;;;;1.00;1.00;;;;;;;21.42;37.96;101058.88;6280906;22;20189;-65
2021/01/14 01:14:01;;;;;;;1.20;1.10;;;;;;;21.41;37.98;101057.19;6255422;22;20158;-66
2021/01/14 01:16:27;;;;;;;1.00;1.00;;;;;;;21.39;37.89;101055.69;6280831;22;20581;-62
2021/01/14 01:18:53;;;;;;;0.97;0.80;;;;;;;21.34;37.95;101049.94;6280760;22;20229;-65
2021/01/14 01:21:19;;;;;;;0.83;0.83;;;;;;;21.30;37.67;101049.44;6280525;22;20160;-70
2021/01/14 01:23:45;;;;;;;1.07;0.97;;;;;;;21.30;37.65;101045.88;6255992;22;20211;-70
2021/01/14 01:26:16;;;;;;;0.90;0.90;;;;;;;21.31;38.00;101053.00;6282456;22;20237;-70
2021/01/14 01:28:42;;;;;;;0.80;0.80;;;;;;;21.28;37.77;101058.78;6282557;22;20158;-70
2021/01/14 01:31:10;;;;;;;0.80;0.80;;;;;;;21.28;37.77;101061.50;6256932;22;20193;-70
2021/01/14 01:33:36;;;;;;;0.80;0.80;;;;;;;21.26;37.77;101049.94;6282951;22;20729;-70
2021/01/14 01:36:02;;;;;;;0.80;0.80;;;;;;;21.26;38.12;101069.00;6256601;22;20154;-62
2021/01/14 01:38:28;;;;;;;0.80;0.80;;;;;;;21.25;38.05;101070.88;6257177;22;20450;-64
2021/01/14 01:40:58;;;;;;;0.90;0.90;;;;;;;21.24;38.14;101074.63;6256898;22;20174;-64
2021/01/14 01:43:25;;;;;;;1.10;1.00;;;;;;;21.24;38.26;101077.34;6257254;22;20158;-65
2021/01/14 01:45:51;;;;;;;1.20;0.87;;;;;;;21.25;38.30;101070.03;6257121;22;20165;-64
2021/01/14 01:48:19;;;;;;;0.70;0.70;;;;;;;21.26;38.48;101075.28;6282554;22;20460;-64
2021/01/14 01:50:46;;;;;;;0.80;0.80;;;;;;;21.28;38.22;101069.69;6282195;22;20193;-64
2021/01/14 01:53:12;;;;;;;0.80;0.80;;;;;;;21.30;38.31;101067.66;6256992;22;20162;-64
2021/01/14 01:55:38;;;;;;;0.83;0.83;;;;;;;21.33;38.47;101073.59;6282140;22;20241;-65
2021/01/14 01:58:04;;;;;;;1.97;1.00;;;;;;;21.35;38.64;101073.41;6309041;22;20189;-62
2021/01/14 02:00:31;;;;;;;0.60;0.60;;;;;;;21.37;38.39;101074.06;6256123;22;20174;-62
2021/01/14 02:02:57;;;;;;;0.87;0.80;;;;;;;21.39;38.30;101078.31;6231641;22;20174;-70
2021/01/14 02:05:23;;;;;;;0.90;0.90;;;;;;;21.42;38.25;101086.13;6309574;22;20631;-64
2021/01/14 02:07:52;;;;;;;0.67;0.67;;;;;;;21.43;38.47;101085.09;6282055;22;20173;-62
2021/01/14 02:10:25;;;;;;;0.80;0.80;;;;;;;21.45;38.07;101093.09;6308494;22;20193;-70
2021/01/14 02:13:31;;;;;;;0.80;0.80;;;;;;;21.49;38.04;101097.16;6309330;22;20583;-70
2021/01/14 02:15:58;;;;;;;1.13;0.80;;;;;;;21.48;38.19;101098.16;6282384;22;20169;-70
2021/01/14 02:18:24;;;;;;;0.73;0.70;;;;;;;21.45;38.19;101095.81;6256438;22;20331;-64
2021/01/14 02:20:55;;;;;;;0.60;0.60;;;;;;;21.45;37.96;101101.25;6231301;22;20184;-64
2021/01/14 02:23:36;;;;;;;0.67;0.67;;;;;;;21.43;38.03;101103.31;6282059;22;20146;-64
2021/01/14 02:26:05;;;;;;;1.07;0.97;;;;;;;21.39;38.00;101110.16;6283779;22;20232;-70
2021/01/14 02:28:31;;;;;;;0.70;0.70;;;;;;;21.33;38.01;101105.41;6256616;22;20173;-66
2021/01/14 02:30:57;;;;;;;1.50;0.77;;;;;;;21.30;37.79;101119.38;6281558;22;20194;-65
2021/01/14 02:33:24;;;;;;;0.60;0.60;;;;;;;21.27;38.04;101117.84;6281944;22;20173;-66
2021/01/14 02:35:50;;;;;;;0.70;0.70;;;;;;;21.29;38.07;101118.50;6308705;22;20468;-66
2021/01/14 02:38:16;;;;;;;0.83;0.83;;;;;;;21.30;37.88;101112.06;6308878;22;20142;-66
2021/01/14 02:40:42;;;;;;;0.73;0.73;;;;;;;21.30;37.68;101117.50;6281998;22;20198;-66
2021/01/14 02:43:08;;;;;;;0.73;0.73;;;;;;;21.30;38.01;101124.84;6308788;22;20576;-66
2021/01/14 02:45:34;;;;;;;0.80;0.73;;;;;;;21.30;37.90;101133.00;6281723;22;20154;-62
2021/01/14 02:48:01;;;;;;;0.70;0.60;;;;;;;21.29;37.86;101137.56;6281736;22;20211;-62
2021/01/14 02:50:27;;;;;;;0.73;0.73;;;;;;;21.29;38.16;101143.00;6256428;22;20182;-66
2021/01/14 02:52:54;;;;;;;0.90;0.83;;;;;;;21.29;37.92;101142.16;6308586;22;20568;-66
2021/01/14 02:55:20;;;;;;;0.70;0.70;;;;;;;21.28;37.90;101143.19;6282202;22;20662;-66
2021/01/14 02:57:46;;;;;;;0.67;0.67;;;;;;;21.28;37.92;101151.34;6281608;22;20167;-66
2021/01/14 03:00:16;;;;;;;0.70;0.70;;;;;;;21.28;38.17;101156.81;6255708;22;20174;-62
2021/01/14 03:02:42;;;;;;;0.97;0.60;;;;;;;21.26;37.98;101170.59;6281608;22;20163;-65
2021/01/14 03:05:08;;;;;;;0.50;0.50;;;;;;;21.27;38.12;101163.28;6308667;22;20512;-62
2021/01/14 03:07:34;;;;;;;0.60;0.60;;;;;;;21.27;38.22;101160.56;6281899;22;20564;-62
2021/01/14 03:10:00;;;;;;;0.70;0.70;;;;;;;21.27;37.97;101150.50;6281360;22;20192;-70
2021/01/14 03:12:27;;;;;;;0.80;0.60;;;;;;;21.28;38.30;101149.47;6255977;22;20212;-70
2021/01/14 03:14:53;;;;;;;0.77;0.60;;;;;;;21.29;38.03;101153.91;6256246;22;20162;-62
2021/01/14 03:17:19;;;;;;;0.50;0.50;;;;;;;21.30;38.11;101155.63;6281596;22;20157;-62
2021/01/14 03:19:45;;;;;;;0.60;0.57;;;;;;;21.31;38.13;101151.03;6267988;22;20797;-62
2021/01/14 03:22:11;;;;;;;1.33;0.60;;;;;;;21.32;38.35;101152.72;6277652;22;20216;-65
2021/01/14 03:24:39;;;;;;;0.60;0.50;;;;;;;21.33;38.15;101143.53;6294219;22;20158;-70
2021/01/14 03:27:06;;;;;;;0.43;0.43;;;;;;;21.34;38.29;101139.78;6308263;22;20169;-70
2021/01/14 03:29:32;;;;;;;0.70;0.60;;;;;;;21.35;38.31;101144.22;6254846;22;20780;-70
2021/01/14 03:32:02;;;;;;;0.60;0.60;;;;;;;21.36;38.22;101143.19;6308269;22;20588;-65
2021/01/14 03:34:29;;;;;;;0.70;0.70;;;;;;;21.36;37.88;101157.66;6256383;22;20176;-65
2021/01/14 03:36:57;;;;;;;0.70;0.60;;;;;;;21.36;38.09;101149.47;6281459;22;20168;-65
2021/01/14 03:39:24;;;;;;;0.70;0.60;;;;;;;21.37;38.02;101155.78;6282072;22;20174;-65
2021/01/14 03:41:51;;;;;;;0.50;0.50;;;;;;;21.36;38.03;101154.06;6256049;22;20158;-65
2021/01/14 03:44:18;;;;;;;1.10;0.70;;;;;;;21.35;37.77;101169.56;6281155;22;20177;-63
2021/01/14 03:46:48;;;;;;;0.40;0.40;;;;;;;21.33;37.82;101173.50;6281663;22;20188;-62
2021/01/14 03:49:14;;;;;;;0.50;0.50;;;;;;;21.31;37.92;101175.53;6255609;22;20189;-64
2021/01/14 03:51:42;;;;;;;0.60;0.60;;;;;;;21.30;37.67;101171.13;6281436;22;20185;-62
2021/01/14 03:54:09;;;;;;;0.50;0.50;;;;;;;21.31;37.71;101175.53;6256432;22;20176;-63
2021/01/14 03:56:38;;;;;;;0.40;0.40;;;;;;;21.33;37.73;101170.78;6255809;22;20158;-66
2021/01/14 03:59:05;;;;;;;0.60;0.60;;;;;;;21.32;37.97;101169.06;6280542;22;20208;-66
2021/01/14 04:01:31;;;;;;;0.67;0.67;;;;;;;21.30;38.08;101173.84;6281209;22;20237;-66
2021/01/14 04:03:58;;;;;;;0.60;0.60;;;;;;;21.29;38.08;101175.69;6308046;22;20501;-63
2021/01/14 04:06:34;;;;;;;0.60;0.60;;;;;;;21.31;38.12;101179.13;6281367;22;20468;-66
2021/01/14 04:09:01;;;;;;;0.50;0.50;;;;;;;21.30;37.98;101182.88;6307936;22;20677;-66
2021/01/14 04:11:27;;;;;;;0.90;0.57;;;;;;;21.32;38.33;101191.69;6255212;22;20190;-67
2021/01/14 04:13:53;;;;;;;0.63;0.63;;;;;;;21.34;38.38;101173.31;6308001;22;20547;-66
2021/01/14 04:16:19;;;;;;;0.50;0.50;;;;;;;21.36;38.38;101175.84;6308018;22;20158;-66
2021/01/14 04:18:45;;;;;;;0.60;0.60;;;;;;;21.37;38.35;101167.50;6307981;22;20161;-71
2021/01/14 04:21:16;;;;;;;0.40;0.40;;;;;;;21.40;38.39;101161.72;6281253;22;20242;-71
2021/01/14 04:23:45;;;;;;;0.50;0.50;;;;;;;21.43;38.34;101152.34;6279984;22;20147;-71
2021/01/14 04:26:12;;;;;;;0.70;0.50;;;;;;;21.44;37.76;101148.59;6230384;22;20462;-62
2021/01/14 04:28:38;;;;;;;0.40;0.40;;;;;;;21.46;38.20;101151.97;6281181;22;20512;-62
2021/01/14 04:31:05;;;;;;;0.50;0.50;;;;;;;21.47;38.11;101141.94;6254872;22;20607;-66
2021/01/14 04:33:31;;;;;;;0.63;0.60;;;;;;;21.48;37.95;101147.19;6307979;22;20212;-69
2021/01/14 04:35:59;;;;;;;0.60;0.60;;;;;;;21.48;38.04;101158.09;6307709;22;20242;-71
2021/01/14 04:38:26;;;;;;;0.60;0.53;;;;;;;21.46;37.81;101160.16;6307792;22;20245;-71
2021/01/14 04:41:02;;;;;;;0.50;0.50;;;;;;;21.47;37.84;101167.28;6280984;22;20535;-71
2021/01/14 04:43:30;;;;;;;0.73;0.53;;;;;;;21.43;37.85;101174.13;6282099;22;20207;-71
2021/01/14 04:46:06;;;;;;;0.50;0.50;;;;;;;21.40;37.79;101166.31;6255753;22;20278;-71
2021/01/14 04:48:39;;;;;;;0.50;0.50;;;;;;;21.37;37.69;101175.69;6281585;22;20138;-70
2021/01/14 04:51:13;;;;;;;0.50;0.50;;;;;;;21.34;37.82;101172.47;6281227;22;20186;-65
2021/01/14 04:53:43;;;;;;;0.60;0.60;;;;;;;21.31;37.73;101183.72;6282010;22;20149;-66
2021/01/14 04:56:10;;;;;;;0.70;0.40;;;;;;;21.32;37.65;101190.84;6307885;22;20570;-66
2021/01/14 04:58:38;;;;;;;0.50;0.50;;;;;;;21.33;37.75;101189.84;6281853;22;20171;-65
2021/01/14 05:01:26;;;;;;;0.83;0.67;;;;;;;21.33;37.74;101181.66;6282398;22;20531;-64
2021/01/14 05:03:53;;;;;;;0.67;0.50;;;;;;;21.31;37.70;101183.72;6309607;22;20173;-70
2021/01/14 05:06:23;;;;;;;0.47;0.47;;;;;;;21.32;37.82;101190.84;6309632;22;20158;-62
2021/01/14 05:08:51;;;;;;;0.63;0.40;;;;;;;21.31;37.53;101189.16;6257527;22;20239;-62
2021/01/14 05:11:17;;;;;;;0.40;0.40;;;;;;;21.28;37.66;101186.75;6282830;22;20182;-66
2021/01/14 05:13:47;;;;;;;0.60;0.50;;;;;;;21.28;37.88;101182.16;6282618;22;20531;-66
2021/01/14 05:16:13;;;;;;;0.50;0.50;;;;;;;21.26;37.79;101186.09;6309693;22;20154;-70
2021/01/14 05:18:40;;;;;;;0.60;0.60;;;;;;;21.26;37.91;101181.47;6257274;22;20169;-63
2021/01/14 05:21:06;;;;;;;0.50;0.43;;;;;;;21.26;38.04;101192.38;6282661;22;20185;-64
2021/01/14 05:23:32;;;;;;;0.50;0.50;;;;;;;21.28;38.12;101190.31;6282392;22;20162;-65
2021/01/14 05:26:02;;;;;;;0.53;0.40;;;;;;;21.30;38.09;101182.88;6256955;22;20586;-66
2021/01/14 05:28:32;;;;;;;0.50;0.50;;;;;;;21.32;37.96;101172.66;6232069;22;20170;-64
2021/01/14 05:31:19;;;;;;;0.53;0.40;;;;;;;21.36;38.43;101181.31;6231596;22;20194;-64
2021/01/14 05:33:57;;;;;;;0.40;0.40;;;;;;;21.38;38.19;101177.38;6282667;22;20244;-65
2021/01/14 05:36:23;;;;;;;0.47;0.40;;;;;;;21.40;38.16;101182.66;6282355;22;20166;-64
2021/01/14 05:38:51;;;;;;;0.50;0.50;;;;;;;21.41;38.11;101185.19;6282449;22;20242;-67
2021/01/14 05:41:21;;;;;;;0.40;0.40;;;;;;;21.43;37.92;101191.31;6309394;22;20189;-64
2021/01/14 05:44:13;;;;;;;0.63;0.60;;;;;;;21.49;37.94;101186.19;6283482;22;20162;-66
2021/01/14 05:46:39;;;;;;;0.47;0.40;;;;;;;21.47;37.75;101191.81;6302983;22;20174;-65
2021/01/14 05:49:07;;;;;;;0.50;0.40;;;;;;;21.49;37.95;101188.91;6309150;22;20587;-64
2021/01/14 05:51:34;;;;;;;0.50;0.50;;;;;;;21.49;37.88;101207.97;6257351;22;20182;-70
2021/01/14 05:54:11;;;;;;;0.60;0.47;;;;;;;21.51;37.86;101205.91;6309031;22;20244;-62
2021/01/14 05:56:47;;;;;;;0.40;0.40;;;;;;;21.49;37.62;101208.81;6282825;22;20143;-62
2021/01/14 05:59:17;;;;;;;0.33;0.33;;;;;;;21.48;37.69;101204.41;6308440;22;20174;-62
2021/01/14 06:01:59;;;;;;;0.40;0.40;;;;;;;21.46;37.83;101220.06;6258182;22;20143;-70
2021/01/14 06:04:28;;;;;;;0.40;0.27;;;;;;;21.43;37.75;101220.44;6309208;22;20211;-70
2021/01/14 06:07:05;;;;;;;0.67;0.57;;;;;;;21.39;37.48;101228.09;6257432;22;20449;-70
2021/01/14 06:09:40;;;;;;;0.50;0.50;;;;;;;21.36;37.68;101230.31;6260636;22;20174;-71
2021/01/14 06:12:10;;;;;;;0.50;0.50;;;;;;;21.31;37.48;101228.13;6282386;22;20182;-71
2021/01/14 06:14:36;;;;;;;0.60;0.47;;;;;;;21.28;37.54;101224.88;6257049;22;20696;-63
2021/01/14 06:17:04;;;;;;;0.50;0.50;;;;;;;21.26;37.56;101224.19;6256795;22;20154;-63
2021/01/14 06:19:30;;;;;;;0.53;0.50;;;;;;;21.25;37.62;101223.34;6231278;22;20182;-71
2021/01/14 06:21:57;;;;;;;0.40;0.37;;;;;;;21.27;37.73;101225.91;6282182;22;20232;-63
2021/01/14 06:24:39;;;;;;;0.57;0.50;;;;;;;21.25;37.59;101233.41;6282041;22;20155;-63
2021/01/14 06:27:05;;;;;;;0.40;0.40;;;;;;;21.25;37.51;101239.69;6257947;22;20564;-71
2021/01/14 06:29:41;;;;;;;0.40;0.40;;;;;;;21.25;37.71;101242.41;6308301;22;20249;-71
2021/01/14 06:32:12;;;;;;;0.60;0.40;;;;;;;21.25;37.87;101247.00;6308961;22;20146;-67
2021/01/14 06:34:39;;;;;;;0.40;0.30;;;;;;;21.26;37.75;101245.97;6308850;22;20169;-67
2021/01/14 06:37:07;;;;;;;0.50;0.50;;;;;;;21.26;38.04;101246.84;6308542;22;20162;-63
2021/01/14 06:39:38;;;;;;;0.63;0.40;;;;;;;21.28;37.91;101249.38;6308970;22;20256;-70
2021/01/14 06:42:14;;;;;;;0.40;0.40;;;;;;;21.31;38.06;101251.78;6308770;22;20537;-70
2021/01/14 06:44:46;;;;;;;0.43;0.33;;;;;;;21.32;37.94;101250.75;6282727;22;20225;-63
2021/01/14 06:47:12;;;;;;;0.30;0.30;;;;;;;21.33;38.09;101247.88;6281784;22;20161;-72
2021/01/14 06:49:38;;;;;;;0.50;0.37;;;;;;;21.35;38.08;101256.72;6256245;22;20178;-63
2021/01/14 06:52:10;;;;;;;0.40;0.30;;;;;;;21.39;38.09;101257.19;6256440;22;20219;-66
2021/01/14 06:54:39;;;;;;;0.40;0.40;;;;;;;21.41;37.88;101266.06;6256054;22;20495;-66
2021/01/14 06:57:11;;;;;;;0.70;0.40;;;;;;;21.42;38.05;101259.56;6282034;22;20155;-66
2021/01/14 06:59:38;;;;;;;0.47;0.30;;;;;;;21.41;37.84;101256.00;6281213;22;20210;-71
2021/01/14 07:02:14;;;;;;;0.30;0.30;;;;;;;21.44;37.67;101265.69;6256418;22;20169;-71
2021/01/14 07:04:44;;;;;;;0.30;0.30;;;;;;;21.44;37.88;101257.53;6281784;22;20154;-66
2021/01/14 07:07:44;;;;;;;0.40;0.40;;;;;;;21.42;37.45;101263.16;6308490;22;20165;-66
2021/01/14 07:10:10;;;;;;;0.70;0.40;;;;;;;21.40;37.51;101250.72;6308233;22;20182;-63
2021/01/14 07:12:37;;;;;;;0.50;0.50;;;;;;;21.38;37.79;101260.94;6256111;22;20174;-63
2021/01/14 07:15:14;;;;;;;0.50;0.40;;;;;;;21.34;37.70;101255.00;6281648;22;20485;-62
2021/01/14 07:17:41;;;;;;;0.50;0.40;;;;;;;21.30;37.52;101259.09;6258312;22;20142;-63
2021/01/14 07:20:12;;;;;;;0.30;0.30;;;;;;;21.27;37.60;101258.56;6256115;22;20178;-72
2021/01/14 07:22:59;;;;;;;0.40;0.40;;;;;;;21.24;37.63;101270.66;6307982;22;20473;-71
2021/01/14 07:25:25;;;;;;;0.50;0.50;;;;;;;21.22;37.41;101269.09;6307357;22;20173;-71
2021/01/14 07:27:51;;;;;;;0.47;0.47;;;;;;;21.22;37.77;101267.22;6256281;22;20237;-67
2021/01/14 07:30:18;;;;;;;0.43;0.40;;;;;;;21.22;37.44;101266.38;6255069;22;20193;-65
2021/01/14 07:32:58;;;;;;;0.60;0.40;;;;;;;21.24;37.50;101286.16;6281790;22;20237;-66
2021/01/14 07:35:40;;;;;;;0.40;0.40;;;;;;;21.24;37.86;101283.44;6308410;22;20563;-71
2021/01/14 07:38:11;;;;;;;0.50;0.50;;;;;;;21.22;37.77;101288.16;6281610;22;20494;-65
2021/01/14 07:40:37;;;;;;;0.30;0.30;;;;;;;21.23;38.04;101290.72;6308147;22;20558;-65
2021/01/14 07:43:05;;;;;;;0.47;0.43;;;;;;;21.25;37.90;101293.28;6281742;22;20154;-64
2021/01/14 07:45:31;;;;;;;0.83;0.60;;;;;;;21.28;38.20;101298.41;6256211;22;20229;-64
2021/01/14 07:48:19;;;;;;;0.50;0.40;;;;;;;21.32;38.15;101294.34;6281591;22;20216;-66
2021/01/14 07:50:50;;;;;;;0.43;0.40;;;;;;;21.35;38.26;101293.97;6308132;22;20224;-67
2021/01/14 07:53:17;;;;;;;0.40;0.40;;;;;;;21.36;38.07;101301.97;6308343;22;20155;-66
2021/01/14 07:55:43;;;;;;;0.53;0.53;;;;;;;21.39;38.04;101300.78;6281369;22;20622;-67
2021/01/14 07:58:21;;;;;;;0.40;0.40;;;;;;;21.43;37.99;101302.13;6307919;22;20215;-66
2021/01/14 08:01:08;;;;;;;0.40;0.40;;;;;;;21.47;38.00;101308.94;6307321;22;20201;-67
2021/01/14 08:03:38;;;;;;;0.70;0.50;;;;;;;21.49;38.00;101303.31;6308035;22;20158;-67
2021/01/14 08:06:22;;;;;;;0.93;0.50;;;;;;;21.52;37.77;101302.94;6308022;22;20257;-67
2021/01/14 08:08:55;;;;;;;0.60;0.50;;;;;;;21.53;37.96;101301.94;6308373;22;20448;-66
2021/01/14 08:11:23;;;;;;;0.50;0.47;;;;;;;21.50;37.67;101308.56;6307911;22;20608;-67
2021/01/14 08:14:08;;;;;;;1.13;0.50;;;;;;;21.52;37.77;101314.69;6281606;22;20177;-68
2021/01/14 08:16:48;;;;;;;0.73;0.60;;;;;;;21.49;37.60;101304.16;6281046;22;20496;-67
2021/01/14 08:19:14;;;;;;;0.80;0.67;;;;;;;21.45;37.42;101310.97;6307618;22;20189;-64
2021/01/14 08:21:42;;;;;;;0.63;0.63;;;;;;;21.43;37.73;101313.03;6307908;22;20157;-66
2021/01/14 08:24:09;;;;;;;0.63;0.63;;;;;;;21.41;37.42;101317.78;6307645;22;20597;-65
2021/01/14 08:26:54;;;;;;;0.57;0.50;;;;;;;21.42;37.55;101312.19;6307930;22;20563;-63
2021/01/14 08:29:33;;;;;;;1.00;0.70;;;;;;;21.41;37.39;101317.78;6255000;22;20207;-63
2021/01/14 08:31:59;;;;;;;1.47;0.70;;;;;;;21.34;37.43;101309.47;6281085;22;20480;-63
2021/01/14 08:34:26;;;;;;;0.60;0.43;;;;;;;21.33;37.64;101323.25;6282996;22;20216;-63
2021/01/14 08:36:54;;;;;;;0.93;0.60;;;;;;;21.33;37.41;101313.22;6283619;22;20157;-63
2021/01/14 08:39:21;;;;;;;1.33;0.83;;;;;;;21.34;37.56;101324.97;6257787;22;20212;-64
2021/01/14 08:41:48;;;;;;;0.63;0.50;;;;;;;21.33;37.45;101328.72;6283322;22;20162;-64
2021/01/14 08:44:16;;;;;;;0.60;0.60;;;;;;;21.32;37.61;101329.72;6283481;22;20238;-63
2021/01/14 08:46:47;;;;;;;0.60;0.60;;;;;;;21.31;37.72;101331.59;6283440;22;20162;-64
2021/01/14 08:49:16;;;;;;;0.80;0.60;;;;;;;21.30;37.67;101339.94;6310055;22;20268;-64
2021/01/14 08:51:43;;;;;;;1.07;0.70;;;;;;;21.29;37.64;101343.66;6282864;22;20182;-64
2021/01/14 08:54:10;;;;;;;0.93;0.87;;;;;;;21.28;37.73;101347.41;6309679;22;20472;-63
2021/01/14 08:56:36;;;;;;;0.80;0.73;;;;;;;21.28;37.95;101350.13;6283341;22;20470;-71
2021/01/14 08:59:13;;;;;;;0.67;0.67;;;;;;;21.29;37.71;101349.97;6309373;22;20221;-66
2021/01/14 09:01:39;;;;;;;0.83;0.70;;;;;;;21.28;38.06;101355.56;6309706;22;20563;-66
2021/01/14 09:04:07;;;;;;;0.70;0.60;;;;;;;21.29;38.02;101362.72;6283179;22;20158;-66
2021/01/14 09:06:37;;;;;;;0.70;0.60;;;;;;;21.31;37.94;101364.28;6309443;22;20159;-66
2021/01/14 09:09:13;;;;;;;0.80;0.70;;;;;;;21.33;38.24;101366.84;6282535;22;20178;-66
2021/01/14 09:11:39;;;;;;;1.00;0.60;;;;;;;21.35;38.22;101365.63;6309598;22;20178;-67
2021/01/14 09:14:12;;;;;;;1.13;0.60;;;;;;;21.38;38.16;101364.44;6309903;22;20165;-66
2021/01/14 09:16:40;;;;;;;1.27;0.63;;;;;;;21.40;38.15;101371.41;6309455;22;20186;-66
2021/01/14 09:19:15;;;;;;;1.20;0.60;;;;;;;21.43;37.94;101378.38;6309114;22;20662;-62
2021/01/14 09:21:42;;;;;;;0.80;0.57;;;;;;;21.42;37.81;101373.97;6257421;22;20850;-62
2021/01/14 09:24:08;;;;;;;1.47;0.63;;;;;;;21.44;38.06;101377.38;6282030;22;20186;-62
2021/01/14 09:26:38;;;;;;;0.70;0.70;;;;;;;21.45;38.01;101379.06;6231601;22;20162;-62
2021/01/14 09:29:04;;;;;;;1.70;0.70;;;;;;;;;;6258197;22;20178;-62
2021/01/14 09:31:30;;;;;;;0.60;0.60;;;;;;;21.47;37.86;101387.06;6282577;22;20609;-62
2021/01/14 09:33:58;;;;;;;1.03;0.70;;;;;;;21.46;37.53;101388.94;6256921;22;20155;-62
2021/01/14 09:36:24;;;;;;;0.70;0.60;;;;;;;21.44;37.44;101391.00;6257042;22;20167;-66
2021/01/14 09:38:51;;;;;;;1.03;0.80;;;;;;;21.41;37.53;101394.06;6256720;22;20157;-66
2021/01/14 09:41:25;;;;;;;1.53;0.70;;;;;;;21.38;37.78;101400.69;6309376;22;20159;-70
2021/01/14 09:43:55;;;;;;;1.17;0.60;;;;;;;21.33;37.53;101396.78;6259711;22;20143;-70
2021/01/14 09:46:23;;;;;;;0.60;0.50;;;;;;;21.27;37.75;101398.28;6309073;22;20559;-70
2021/01/14 09:48:50;;;;;;;1.50;0.80;;;;;;;21.28;37.42;101400.00;6257063;22;20184;-70
2021/01/14 09:51:16;;;;;;;0.97;0.50;;;;;;;21.28;37.67;101399.13;6256920;22;20190;-70
2021/01/14 09:53:47;;;;;;;0.73;0.60;;;;;;;21.30;37.39;101403.44;6309283;22;20158;-71
2021/01/14 09:56:30;;;;;;;1.03;0.60;;;;;;;21.31;37.79;101398.84;6309301;22;20159;-70
2021/01/14 09:59:07;;;;;;;0.70;0.67;;;;;;;21.31;37.43;101401.56;6233704;22;20611;-62
2021/01/14 10:01:43;;;;;;;0.60;0.50;;;;;;;21.31;37.47;101396.09;6282040;22;20161;-62
2021/01/14 10:04:14;;;;;;;0.90;0.77;;;;;;;21.30;37.75;101394.41;6282117;22;20154;-62
2021/01/14 10:06:45;;;;;;;1.13;0.70;;;;;;;21.29;37.69;101398.13;6257256;22;20151;-62
2021/01/14 10:09:11;;;;;;;1.03;0.60;;;;;;;21.27;37.67;101394.72;6257418;22;20178;-62
2021/01/14 10:11:37;;;;;;;0.63;0.53;;;;;;;21.27;37.84;101384.69;6281735;22;20204;-66
2021/01/14 10:14:04;;;;;;;0.80;0.70;;;;;;;21.27;37.69;101395.56;6282097;22;20169;-66
2021/01/14 10:16:30;;;;;;;0.67;0.50;;;;;;;21.29;37.75;101384.50;6309110;22;20156;-66
2021/01/14 10:19:09;;;;;;;0.70;0.60;;;;;;;21.33;38.13;101388.63;6282424;22;20499;-66
2021/01/14 10:21:37;;;;;;;0.70;0.40;;;;;;;21.34;37.83;101390.31;6309045;22;20606;-66
2021/01/14 10:24:04;;;;;;;0.80;0.60;;;;;;;21.34;37.88;101393.91;6308681;22;20512;-66
2021/01/14 10:26:31;;;;;;;0.93;0.70;;;;;;;21.36;38.00;101388.28;6309046;22;20231;-66
2021/01/14 10:28:57;;;;;;;0.60;0.50;;;;;;;21.39;37.89;101390.66;6308740;22;21700;-66
2021/01/14 10:31:37;;;;;;;0.87;0.67;;;;;;;21.42;37.99;101388.44;6281709;22;20189;-66
2021/01/14 10:34:04;;;;;;;0.70;0.60;;;;;;;21.42;37.72;101388.44;6282010;22;20154;-66
2021/01/14 10:36:49;;;;;;;0.90;0.77;;;;;;;21.44;37.79;101383.66;6256945;22;20158;-66
2021/01/14 10:39:17;;;;;;;0.60;0.60;;;;;;;21.43;37.79;101378.38;6281925;22;20596;-66
2021/01/14 10:41:44;;;;;;;1.17;0.80;;;;;;;21.41;37.77;101369.53;6308786;22;20246;-66
2021/01/14 10:44:10;;;;;;;1.17;0.60;;;;;;;21.41;37.71;101375.00;6282215;22;20158;-66
2021/01/14 10:46:36;;;;;;;1.10;0.60;;;;;;;21.39;37.61;101372.44;6256510;22;20223;-65
2021/01/14 10:49:12;;;;;;;1.00;0.60;;;;;;;21.38;37.69;101375.34;6281693;22;20531;-65
2021/01/14 10:51:40;;;;;;;1.17;0.60;;;;;;;21.34;37.52;101379.44;6308924;22;20530;-71
2021/01/14 10:54:09;;;;;;;0.60;0.60;;;;;;;21.31;37.47;101368.88;6256773;22;20157;-71
2021/01/14 10:56:52;;;;;;;0.97;0.70;;;;;;;21.30;37.32;101361.72;6308393;22;20158;-66
2021/01/14 10:59:23;;;;;;;0.60;0.60;;;;;;;21.29;37.17;101360.84;6308261;22;20186;-66
2021/01/14 11:02:06;;;;;;;1.00;0.70;;;;;;;21.30;37.26;101372.63;6308589;22;20143;-66
2021/01/14 11:04:32;;;;;;;2.00;0.77;;;;;;;21.29;37.17;101373.63;6308935;22;20237;-64
2021/01/14 11:06:58;;;;;;;2.33;0.90;;;;;;;21.28;37.13;101369.19;6281667;22;20443;-62
2021/01/14 11:09:24;;;;;;;1.50;0.80;;;;;;;21.28;37.13;101369.19;6308393;22;20205;-62
2021/01/14 11:11:50;;;;;;;1.23;0.80;;;;;;;21.27;37.22;101372.94;6308067;22;20213;-62
2021/01/14 11:14:17;;;;;;;0.70;0.70;;;;;;;21.27;37.18;101367.50;6308313;22;20138;-62
2021/01/14 11:16:43;;;;;;;1.77;0.73;;;;;;;21.26;37.29;101360.34;6308529;22;20192;-62
2021/01/14 11:19:10;;;;;;;0.77;0.60;;;;;;;21.26;37.54;101369.38;6308226;22;20178;-70
2021/01/14 11:21:37;;;;;;;0.60;0.60;;;;;;;21.25;37.47;101358.63;6308121;22;20553;-70
2021/01/14 11:24:03;;;;;;;1.07;0.70;;;;;;;21.27;37.56;101357.44;6308431;22;20166;-65
2021/01/14 11:26:30;;;;;;;0.97;0.70;;;;;;;21.29;37.48;101360.00;6281713;22;20227;-65
2021/01/14 11:28:56;;;;;;;1.00;0.90;;;;;;;21.31;37.65;101347.09;6307818;22;20158;-64
2021/01/14 11:31:23;;;;;;;1.13;0.63;;;;;;;21.33;37.62;101354.06;6281187;22;20622;-61
2021/01/14 11:33:49;;;;;;;1.03;0.70;;;;;;;21.35;37.67;101354.75;6278506;22;20520;-63
2021/01/14 11:36:19;;;;;;;1.47;0.70;;;;;;;21.38;37.61;101348.09;6307903;22;20587;-62
2021/01/14 11:38:45;;;;;;;1.17;0.70;;;;;;;21.38;37.57;101348.09;6281370;22;20219;-64
2021/01/14 11:41:15;;;;;;;1.10;0.80;;;;;;;21.40;37.46;101346.06;6230729;22;20158;-64